createdAt,value
2023-02-04T00:01:17.426Z,3.50
2023-02-04T00:06:20.362Z,3.50
2023-02-04T00:11:23.185Z,3.60
2023-02-04T00:16:26.185Z,3.60
2023-02-04T00:21:28.949Z,3.70
2023-02-04T00:26:31.762Z,3.70
2023-02-04T00:31:34.898Z,3.70
2023-02-04T00:36:37.852Z,3.70
2023-02-04T00:41:40.936Z,3.70
2023-02-04T00:46:43.886Z,3.70
2023-02-04T00:51:47.335Z,3.70
2023-02-04T00:56:50.225Z,3.70
2023-02-04T01:01:52.923Z,3.70
2023-02-04T01:06:55.838Z,3.70
2023-02-04T01:11:58.605Z,3.70
2023-02-04T01:17:01.399Z,3.80
2023-02-04T01:22:04.303Z,3.70
2023-02-04T01:27:07.278Z,3.70
2023-02-04T01:32:10.126Z,3.70
2023-02-04T01:37:13.191Z,3.70
2023-02-04T01:42:17.485Z,3.80
2023-02-04T01:47:21.263Z,3.80
2023-02-04T01:52:24.829Z,3.90
2023-02-04T01:57:27.778Z,3.90
2023-02-04T02:02:51.473Z,3.90
2023-02-04T02:07:57.809Z,3.90
2023-02-04T02:13:01.011Z,3.90
2023-02-04T02:18:04.014Z,3.90
2023-02-04T02:23:33.126Z,3.90
2023-02-04T02:28:35.937Z,3.90
2023-02-04T02:33:38.719Z,3.90
2023-02-04T02:38:41.896Z,3.90
2023-02-04T02:43:44.790Z,3.80
2023-02-04T02:48:47.545Z,3.80
2023-02-04T02:53:50.763Z,3.70
2023-02-04T02:58:53.916Z,3.60
2023-02-04T03:03:56.747Z,3.50
2023-02-04T03:08:59.476Z,3.50
2023-02-04T03:14:02.877Z,3.40
2023-02-04T03:19:07.968Z,3.40
2023-02-04T03:24:10.843Z,3.40
2023-02-04T03:29:13.868Z,3.30
2023-02-04T03:34:16.834Z,3.30
2023-02-04T03:39:19.508Z,3.20
2023-02-04T03:44:22.790Z,3.20
2023-02-04T03:49:25.834Z,3.10
2023-02-04T03:54:29.326Z,3.00
2023-02-04T03:59:32.199Z,2.90
2023-02-04T04:04:35.574Z,2.90
2023-02-04T04:09:38.266Z,2.90
2023-02-04T04:14:40.918Z,2.80
2023-02-04T04:19:46.528Z,2.70
2023-02-04T04:24:49.271Z,2.60
2023-02-04T04:29:52.387Z,2.50
2023-02-04T04:34:55.087Z,2.30
2023-02-04T04:39:57.682Z,2.20
2023-02-04T04:45:00.259Z,2.10
2023-02-04T04:50:03.859Z,1.90
2023-02-04T04:55:06.977Z,1.80
2023-02-04T05:00:16.228Z,1.60
2023-02-04T05:05:19.102Z,1.60
2023-02-04T05:10:21.927Z,1.30
2023-02-04T05:15:24.713Z,1.20
2023-02-04T05:20:27.807Z,1.10
2023-02-04T05:25:30.609Z,0.90
2023-02-04T05:30:33.742Z,0.70
2023-02-04T05:35:36.579Z,0.60
2023-02-04T05:40:39.309Z,0.50
2023-02-04T05:45:42.242Z,0.50
2023-02-04T05:50:44.989Z,0.40
2023-02-04T05:55:47.752Z,0.40
2023-02-04T06:00:50.553Z,0.30
2023-02-04T06:05:53.562Z,0.30
2023-02-04T06:10:56.157Z,0.30
2023-02-04T06:15:58.840Z,0.20
2023-02-04T06:21:04.882Z,0.20
2023-02-04T06:26:07.661Z,0.20
2023-02-04T06:31:10.684Z,0.20
2023-02-04T06:36:13.594Z,0.10
2023-02-04T06:41:17.604Z,0.10
2023-02-04T06:46:20.501Z,0.10
2023-02-04T06:51:23.263Z,0.10
2023-02-04T06:56:27.240Z,0.00
2023-02-04T07:01:30.084Z,0.10
2023-02-04T07:06:33.104Z,0.10
2023-02-04T07:11:35.942Z,0.20
2023-02-04T07:16:38.884Z,0.10
2023-02-04T07:21:41.654Z,0.20
2023-02-04T07:26:44.429Z,0.20
2023-02-04T07:31:47.533Z,0.20
2023-02-04T07:36:50.894Z,0.20
2023-02-04T07:41:53.824Z,0.20
2023-02-04T07:47:01.037Z,0.20
2023-02-04T07:52:04.124Z,0.20
2023-02-04T07:57:07.034Z,0.20
2023-02-04T08:02:11.291Z,0.20
2023-02-04T08:07:14.225Z,0.30
2023-02-04T08:12:17.169Z,0.30
2023-02-04T08:17:19.865Z,0.40
2023-02-04T08:22:22.611Z,0.50
2023-02-04T08:27:25.390Z,0.50
2023-02-04T08:32:29.573Z,0.50
2023-02-04T08:37:32.329Z,0.60
2023-02-04T08:42:35.171Z,0.90
2023-02-04T08:47:37.999Z,1.00
2023-02-04T08:52:40.711Z,0.90
2023-02-04T08:57:43.440Z,1.00
2023-02-04T09:02:46.177Z,0.90
2023-02-04T09:07:48.904Z,1.50
2023-02-04T09:12:56.318Z,1.90
2023-02-04T09:18:11.529Z,2.20
2023-02-04T09:23:15.061Z,1.90
2023-02-04T09:28:18.375Z,2.70
2023-02-04T09:33:21.234Z,3.30
2023-02-04T09:38:24.013Z,2.40
2023-02-04T09:43:29.725Z,2.20
2023-02-04T09:48:33.217Z,1.90
2023-02-04T09:53:38.302Z,1.60
2023-02-04T09:58:42.243Z,1.80
2023-02-04T10:03:47.982Z,2.40
2023-02-04T10:08:51.949Z,4.40
2023-02-04T10:13:56.645Z,3.70
2023-02-04T10:19:03.074Z,2.80
2023-02-04T10:24:13.168Z,2.00
2023-02-04T10:29:21.921Z,1.50
2023-02-04T10:34:40.181Z,2.00
2023-02-04T10:39:43.980Z,1.80
2023-02-04T10:44:48.303Z,1.50
2023-02-04T10:50:00.133Z,3.70
2023-02-04T10:55:09.416Z,8.00
2023-02-04T11:00:17.248Z,9.30
2023-02-04T11:05:29.647Z,10.50
2023-02-04T11:10:34.708Z,4.60
2023-02-04T11:15:49.826Z,8.80
2023-02-04T11:20:56.859Z,9.00
2023-02-04T11:26:10.271Z,5.80
2023-02-04T11:31:22.195Z,6.90
2023-02-04T11:36:25.269Z,4.90
2023-02-04T11:41:31.119Z,3.10
2023-02-04T11:46:34.350Z,2.40
2023-02-04T11:51:37.338Z,5.30
2023-02-04T11:56:40.329Z,4.30
2023-02-04T12:01:43.232Z,2.70
2023-02-04T12:07:02.202Z,2.80
2023-02-04T12:12:05.241Z,5.60
2023-02-04T12:17:34.349Z,5.00
2023-02-04T12:22:37.267Z,4.20
2023-02-04T12:27:40.267Z,4.90
2023-02-04T12:32:43.072Z,4.50
2023-02-04T12:37:46.117Z,6.50
2023-02-04T12:42:49.243Z,5.20
2023-02-04T12:47:52.159Z,3.00
2023-02-04T12:52:58.007Z,2.20
2023-02-04T12:58:00.819Z,1.50
2023-02-04T13:03:04.009Z,1.20
2023-02-04T13:08:06.880Z,1.20
2023-02-04T13:13:09.727Z,1.00
2023-02-04T13:18:12.502Z,0.80
2023-02-04T13:23:15.450Z,0.70
2023-02-04T13:28:18.437Z,0.60
2023-02-04T13:33:21.369Z,0.50
2023-02-04T13:38:24.222Z,0.80
2023-02-04T13:43:27.188Z,0.70
2023-02-04T13:48:30.013Z,1.00
2023-02-04T13:53:32.707Z,3.30
2023-02-04T13:58:35.573Z,4.90
2023-02-04T14:03:38.808Z,3.20
2023-02-04T14:08:41.640Z,4.30
2023-02-04T14:13:44.386Z,3.70
2023-02-04T14:18:47.172Z,2.80
2023-02-04T14:23:49.906Z,2.20
2023-02-04T14:28:52.595Z,2.10
2023-02-04T14:33:56.503Z,2.10
2023-02-04T14:38:59.233Z,1.70
2023-02-04T14:44:02.660Z,1.30
2023-02-04T14:49:05.509Z,1.10
2023-02-04T14:54:08.640Z,1.00
2023-02-04T14:59:11.610Z,0.90
2023-02-04T15:04:14.713Z,0.60
2023-02-04T15:09:17.546Z,0.50
2023-02-04T15:14:20.638Z,0.40
2023-02-04T15:19:25.395Z,0.20
2023-02-04T15:24:29.734Z,0.20
2023-02-04T15:29:32.962Z,0.20
2023-02-04T15:34:36.774Z,0.10
2023-02-04T15:39:40.766Z,0.00
2023-02-04T15:44:43.721Z,-0.10
2023-02-04T15:49:47.142Z,-0.20
2023-02-04T15:54:50.334Z,-0.20
2023-02-04T15:59:53.408Z,-0.20
2023-02-04T16:04:56.228Z,-0.20
2023-02-04T16:09:59.219Z,-0.20
2023-02-04T16:15:01.947Z,-0.10
2023-02-04T16:20:05.639Z,-0.30
2023-02-04T16:25:08.708Z,-0.20
2023-02-04T16:30:12.533Z,-0.20
2023-02-04T16:35:15.379Z,-0.20
2023-02-04T16:40:18.451Z,-0.20
2023-02-04T16:45:22.222Z,-0.30
2023-02-04T16:50:26.457Z,-0.40
2023-02-04T16:55:30.380Z,-0.40
2023-02-04T17:00:33.226Z,-0.40
2023-02-04T17:05:36.065Z,-0.50
2023-02-04T17:10:57.276Z,-0.50
2023-02-04T17:16:01.570Z,-0.60
2023-02-04T17:21:04.711Z,-0.60
2023-02-04T17:26:07.634Z,-0.60
2023-02-04T17:31:10.875Z,-0.60
2023-02-04T17:36:15.587Z,-0.70
2023-02-04T17:41:18.615Z,-0.80
2023-02-04T17:46:21.479Z,-0.80
2023-02-04T17:51:24.269Z,-0.80
2023-02-04T17:56:27.397Z,-1.00
2023-02-04T18:01:30.358Z,-0.90
2023-02-04T18:06:33.871Z,-1.00
2023-02-04T18:11:41.495Z,-1.00
2023-02-04T18:16:45.153Z,-1.00
2023-02-04T18:21:49.401Z,-0.90
2023-02-04T18:26:54.866Z,-0.90
2023-02-04T18:32:02.143Z,-1.00
2023-02-04T18:37:35.436Z,-1.00
2023-02-04T18:42:43.576Z,-1.00
2023-02-04T18:47:46.776Z,-1.00
2023-02-04T18:52:50.121Z,-1.10
2023-02-04T18:57:53.182Z,-1.10
2023-02-04T19:02:59.697Z,-1.10
2023-02-04T19:08:06.273Z,-1.10
2023-02-04T19:13:42.134Z,-1.10
2023-02-04T19:18:44.980Z,-1.10
2023-02-04T19:23:52.733Z,-1.20
2023-02-04T19:28:56.445Z,-1.20
2023-02-04T19:34:02.079Z,-1.20
2023-02-04T19:39:14.955Z,-1.20
2023-02-04T19:44:42.951Z,-1.40
2023-02-04T19:49:46.170Z,-1.50
2023-02-04T19:54:48.954Z,-1.40
2023-02-04T19:59:55.909Z,-1.50
2023-02-04T20:04:58.758Z,-1.50
2023-02-04T20:10:20.527Z,-1.40
2023-02-04T20:15:23.982Z,-1.30
2023-02-04T20:20:32.394Z,-1.30
2023-02-04T20:26:02.187Z,-1.40
2023-02-04T20:31:18.735Z,-1.40
2023-02-04T20:36:28.595Z,-1.60
2023-02-04T20:41:38.797Z,-1.50
2023-02-04T20:46:41.753Z,-1.50
2023-02-04T20:51:44.664Z,-1.40
2023-02-04T20:56:47.659Z,-1.40
2023-02-04T21:01:51.056Z,-1.30
2023-02-04T21:06:55.935Z,-1.30
2023-02-04T21:12:01.204Z,-1.30
2023-02-04T21:17:04.888Z,-1.30
2023-02-04T21:22:07.906Z,-1.40
2023-02-04T21:27:11.113Z,-1.40
2023-02-04T21:32:14.001Z,-1.40
2023-02-04T21:37:19.895Z,-1.40
2023-02-04T21:42:23.239Z,-1.40
2023-02-04T21:47:26.550Z,-1.40
2023-02-04T21:52:29.442Z,-1.30
2023-02-04T21:57:33.982Z,-1.40
2023-02-04T22:02:36.879Z,-1.40
2023-02-04T22:07:41.279Z,-1.30
2023-02-04T22:12:44.197Z,-1.30
2023-02-04T22:17:47.030Z,-1.40
2023-02-04T22:22:50.159Z,-1.60
2023-02-04T22:27:52.979Z,-1.80
2023-02-04T22:32:56.858Z,-1.90
2023-02-04T22:38:01.915Z,-2.00
2023-02-04T22:43:05.295Z,-2.00
2023-02-04T22:48:08.195Z,-2.20
2023-02-04T22:53:11.048Z,-2.10
2023-02-04T22:58:13.849Z,-2.20
2023-02-04T23:03:16.794Z,-2.20
2023-02-04T23:08:20.215Z,-2.20
2023-02-04T23:13:23.777Z,-2.30
2023-02-04T23:18:26.828Z,-2.30
2023-02-04T23:23:31.802Z,-2.30
2023-02-04T23:28:34.653Z,-2.40
2023-02-04T23:33:37.453Z,-2.40
2023-02-04T23:38:40.353Z,-2.50
2023-02-04T23:43:43.215Z,-2.50
2023-02-04T23:48:46.369Z,-2.60
2023-02-04T23:53:49.139Z,-2.60
2023-02-04T23:58:53.794Z,-2.70
